Time;durP1;ratioP1;P1;durP2;ratioP2;P2;SDS_P1;SDS_P2;PMS_P1;PMS_P2;Temp;Humidity;BMP_temperature;BMP_pressure;BME280_temperature;BME280_humidity;BME280_pressure;Samples;Min_cycle;Max_cycle;Signal;HPM_P1;HPM_P2
2021/08/26 00:08:44;;;;;;;14.10;8.05;;;;;;;14.24;100.00;98556.67;4465436;78;28507;-79
2021/08/26 00:14:46;;;;;;;18.05;9.05;;;;;;;14.26;100.00;98545.60;4539745;78;28477;-79
2021/08/26 00:20:51;;;;;;;17.67;9.45;;;;;;;14.31;100.00;98545.06;4543576;78;28461;-79
2021/08/26 00:26:50;;;;;;;19.02;9.60;;;;;;;14.35;100.00;98532.63;4562164;77;28466;-79
2021/08/26 00:32:52;;;;;;;16.60;8.68;;;;;;;14.19;100.00;98522.33;4558360;77;28498;-79
2021/08/26 00:38:53;;;;;;;15.93;8.23;;;;;;;14.11;100.00;98523.41;4532460;77;28515;-79
2021/08/26 00:44:54;;;;;;;17.27;9.05;;;;;;;14.27;100.00;98514.25;4519311;78;28484;-79
2021/08/26 00:50:57;;;;;;;17.05;9.45;;;;;;;14.06;100.00;98499.34;4534518;77;28530;-80
2021/08/26 00:56:59;;;;;;;17.17;9.80;;;;;;;14.11;100.00;98499.90;4547495;77;28527;-80
2021/08/26 01:03:11;;;;;;;12.65;7.33;;;;;;;14.06;100.00;98491.23;4548540;78;28523;-79
2021/08/26 01:09:16;;;;;;;14.13;7.33;;;;;;;13.97;100.00;98487.44;4549595;77;28444;-80
2021/08/26 01:15:17;;;;;;;15.32;8.08;;;;;;;14.10;100.00;98477.18;4548363;77;28510;-80
2021/08/26 01:21:22;;;;;;;16.65;9.25;;;;;;;13.79;100.00;98479.27;4550881;77;28568;-80
2021/08/26 01:27:28;;;;;;;14.68;8.78;;;;;;;13.88;100.00;98462.01;4562685;77;28476;-78
2021/08/26 01:33:29;;;;;;;14.27;7.60;;;;;;;14.01;100.00;98453.37;4543320;77;28465;-79
2021/08/26 01:39:30;;;;;;;19.95;8.85;;;;;;;14.00;100.00;98460.39;4567943;77;28521;-79
2021/08/26 01:45:32;;;;;;;15.80;9.03;;;;;;;13.51;100.00;98467.29;4586028;77;28519;-79
2021/08/26 01:51:33;;;;;;;14.23;8.05;;;;;;;14.61;100.00;98453.38;4594648;77;28441;-79
2021/08/26 01:57:35;;;;;;;18.87;7.67;;;;;;;14.43;100.00;98449.34;4594204;77;28529;-78
2021/08/26 02:03:37;;;;;;;14.30;7.65;;;;;;;14.34;100.00;98439.06;4593885;77;28448;-79
2021/08/26 02:09:39;;;;;;;13.72;8.05;;;;;;;14.30;100.00;98434.47;4555921;77;28477;-79
2021/08/26 02:15:40;;;;;;;14.50;8.13;;;;;;;14.43;100.00;98421.77;4567742;77;28474;-80
2021/08/26 02:21:42;;;;;;;14.60;8.18;;;;;;;14.50;100.00;98408.77;4568805;77;28468;-79
2021/08/26 02:27:43;;;;;;;13.32;7.22;;;;;;;14.30;100.00;98396.61;4569213;77;28452;-79
2021/08/26 02:33:45;;;;;;;13.78;6.90;;;;;;;14.30;100.00;98392.03;4568274;77;28569;-79
2021/08/26 02:39:46;;;;;;;12.80;6.53;;;;;;;14.45;100.00;98376.33;4568652;77;28505;-80
2021/08/26 02:45:47;;;;;;;12.85;7.58;;;;;;;14.64;100.00;98367.64;4545967;77;28492;-79
2021/08/26 02:51:49;;;;;;;17.60;8.40;;;;;;;14.76;100.00;98372.77;4567310;78;28526;-79
2021/08/26 02:57:50;;;;;;;13.35;8.03;;;;;;;14.82;100.00;98366.27;4568343;77;28496;-80
2021/08/26 03:03:51;;;;;;;12.07;6.90;;;;;;;14.99;100.00;98357.80;4568750;77;28470;-80
2021/08/26 03:09:53;;;;;;;13.53;6.67;;;;;;;14.94;100.00;98347.55;4568651;77;28509;-80
2021/08/26 03:15:54;;;;;;;13.18;7.40;;;;;;;15.07;100.00;98351.00;4568478;77;28491;-80
2021/08/26 03:21:55;;;;;;;12.82;7.53;;;;;;;15.12;100.00;98345.58;4568677;77;28479;-80
2021/08/26 03:27:56;;;;;;;15.00;8.63;;;;;;;15.17;100.00;98342.83;4568851;77;28441;-80
2021/08/26 03:33:58;;;;;;;12.25;7.12;;;;;;;15.23;100.00;98339.55;4568997;77;28536;-79
2021/08/26 03:39:59;;;;;;;13.65;7.50;;;;;;;15.14;100.00;98329.03;4569179;77;28481;-80
2021/08/26 03:46:00;;;;;;;12.43;6.67;;;;;;;15.32;100.00;98327.05;4493588;77;28463;-80
2021/08/26 03:52:02;;;;;;;15.45;7.40;;;;;;;15.45;100.00;98324.80;4504435;78;28556;-79
2021/08/26 03:58:04;;;;;;;13.83;7.90;;;;;;;15.61;100.00;98318.19;4504125;79;28466;-80
2021/08/26 04:04:05;;;;;;;13.43;6.75;;;;;;;15.67;100.00;98319.50;4544312;77;28483;-80
2021/08/26 04:10:08;;;;;;;13.80;7.80;;;;;;;15.75;100.00;98317.55;4569471;78;28496;-81
2021/08/26 04:16:09;;;;;;;12.90;7.05;;;;;;;15.81;100.00;98311.00;4569498;78;28519;-80
2021/08/26 04:22:10;;;;;;;16.75;8.28;;;;;;;15.78;100.00;98304.80;4568431;78;28577;-80
2021/08/26 04:28:11;;;;;;;13.10;6.72;;;;;;;15.81;100.00;98304.77;4526862;77;28475;-81
2021/08/26 04:34:13;;;;;;;12.40;6.83;;;;;;;15.78;100.00;98292.61;4487716;79;28506;-80
2021/08/26 04:40:14;;;;;;;12.03;6.55;;;;;;;16.15;100.00;98290.41;4542853;78;28442;-81
2021/08/26 04:46:15;;;;;;;15.05;7.00;;;;;;;16.24;100.00;98287.88;4540205;77;28483;-79
2021/08/26 04:52:17;;;;;;;16.90;7.75;;;;;;;16.37;100.00;98287.18;4487399;79;28456;-79
2021/08/26 04:58:18;;;;;;;12.60;6.47;;;;;;;16.59;100.00;98285.85;4498456;78;28461;-83
2021/08/26 05:04:23;;;;;;;12.33;6.05;;;;;;;16.42;100.00;98287.67;4564195;77;28499;-81
2021/08/26 05:10:22;;;;;;;11.57;6.20;;;;;;;16.38;100.00;98277.94;4558662;78;28458;-83
2021/08/26 05:16:24;;;;;;;10.30;5.97;;;;;;;16.60;100.00;98282.03;4569273;78;28448;-83
2021/08/26 05:22:25;;;;;;;13.70;7.05;;;;;;;16.72;100.00;98285.70;4566470;77;28471;-83
2021/08/26 05:28:27;;;;;;;12.37;6.95;;;;;;;16.98;100.00;98271.81;4559253;77;28543;-81
2021/08/26 05:34:28;;;;;;;12.90;7.17;;;;;;;16.98;100.00;98265.82;4558437;77;28547;-82
2021/08/26 05:40:30;;;;;;;11.73;6.60;;;;;;;16.92;100.00;98263.47;4558638;77;28563;-82
2021/08/26 05:46:31;;;;;;;12.88;6.58;;;;;;;17.05;100.00;98253.83;4578409;77;28562;-83
2021/08/26 05:52:32;;;;;;;11.05;6.28;;;;;;;17.05;100.00;98253.83;4525291;77;28507;-82
2021/08/26 05:58:34;;;;;;;15.80;7.17;;;;;;;17.24;100.00;98240.23;4490984;77;28514;-83
2021/08/26 06:04:35;;;;;;;13.05;6.72;;;;;;;17.39;100.00;98248.16;4483228;77;28435;-82
2021/08/26 06:10:37;;;;;;;10.72;6.40;;;;;;;17.42;100.00;98245.39;4516231;77;28518;-82
2021/08/26 06:16:39;;;;;;;13.03;6.58;;;;;;;17.68;100.00;98253.14;4526975;78;28418;-82
2021/08/26 06:22:43;;;;;;;14.03;7.10;;;;;;;17.69;100.00;98256.91;4480597;79;28950;-81
2021/08/26 06:28:44;;;;;;;11.03;6.58;;;;;;;17.92;100.00;98270.68;4487378;79;28468;-81
2021/08/26 06:34:46;;;;;;;14.38;6.87;;;;;;;18.04;100.00;98269.42;4525309;77;28506;-81
2021/08/26 06:40:47;;;;;;;13.55;6.30;;;;;;;17.99;100.00;98274.37;4526840;76;28507;-83
2021/08/26 06:46:48;;;;;;;11.75;6.25;;;;;;;18.15;100.00;98261.33;4554514;76;28522;-77
2021/08/26 06:52:50;;;;;;;12.33;6.08;;;;;;;18.08;100.00;98259.55;4550685;76;28437;-81
2021/08/26 06:58:51;;;;;;;10.28;6.12;;;;;;;18.22;100.00;98260.92;4544576;76;28548;-81
2021/08/26 07:04:53;;;;;;;9.93;5.55;;;;;;;18.16;100.00;98261.58;4432981;77;28448;-80
2021/08/26 07:10:54;;;;;;;10.45;5.40;;;;;;;18.19;100.00;98265.62;4524230;77;28558;-82
2021/08/26 07:16:56;;;;;;;11.93;6.00;;;;;;;18.21;100.00;98258.74;4505155;77;28475;-82
2021/08/26 07:22:57;;;;;;;11.10;6.08;;;;;;;18.37;100.00;98262.55;4533335;76;28538;-80
2021/08/26 07:28:58;;;;;;;12.15;6.85;;;;;;;18.75;100.00;98258.25;4508503;77;28513;-78
2021/08/26 07:35:00;;;;;;;10.32;6.00;;;;;;;19.01;100.00;98259.66;4517508;77;28503;-77
2021/08/26 07:41:01;;;;;;;14.78;5.00;;;;;;;19.16;100.00;98261.20;4510431;77;28557;-76
2021/08/26 07:47:03;;;;;;;9.48;5.53;;;;;;;19.34;100.00;98259.45;4506559;77;28466;-76
2021/08/26 07:53:04;;;;;;;12.70;5.83;;;;;;;18.92;100.00;98254.89;4536587;77;28456;-76
2021/08/26 07:59:07;;;;;;;9.30;5.45;;;;;;;19.75;100.00;98249.45;4512156;77;28477;-74
2021/08/26 08:05:10;;;;;;;9.40;5.40;;;;;;;19.61;100.00;98250.89;4520569;77;28433;-76
2021/08/26 08:11:11;;;;;;;10.32;5.20;;;;;;;19.71;100.00;98250.64;4497223;77;28488;-77
2021/08/26 08:17:12;;;;;;;11.53;4.95;;;;;;;19.94;100.00;98254.72;4485799;77;28471;-77
2021/08/26 08:23:14;;;;;;;9.28;5.42;;;;;;;20.08;100.00;98260.09;4502522;77;28478;-76
2021/08/26 08:29:15;;;;;;;9.18;5.20;;;;;;;20.18;100.00;98251.64;4524445;77;28499;-76
2021/08/26 08:35:16;;;;;;;8.83;4.75;;;;;;;20.18;100.00;98253.00;4518814;77;28485;-76
2021/08/26 08:41:20;;;;;;;10.00;4.33;;;;;;;20.22;100.00;98250.45;4528968;77;28503;-76
2021/08/26 08:47:21;;;;;;;9.53;4.92;;;;;;;20.39;100.00;98243.47;4515607;77;28464;-77
2021/08/26 08:53:24;;;;;;;8.75;5.30;;;;;;;20.31;100.00;98247.20;4478055;76;28462;-76
2021/08/26 08:59:30;;;;;;;8.90;4.78;;;;;;;20.28;100.00;98255.21;4553710;77;28440;-75
2021/08/26 09:05:58;;;;;;;9.77;5.20;;;;;;;20.52;100.00;98252.09;4522254;76;28498;-76
2021/08/26 09:11:59;;;;;;;8.90;5.10;;;;;;;20.57;100.00;98251.95;4513899;77;45870;-83
2021/08/26 09:18:18;;;;;;;7.53;4.40;;;;;;;20.60;99.97;98255.41;4519878;76;28468;-76
2021/08/26 09:24:20;;;;;;;9.25;4.70;;;;;;;20.42;100.00;98256.47;4529672;76;28548;-75
2021/08/26 09:30:22;;;;;;;7.70;4.37;;;;;;;20.64;97.38;98265.14;4542379;76;28444;-78
2021/08/26 09:36:30;;;;;;;7.92;4.58;;;;;;;20.70;96.52;98263.07;4538169;76;28503;-77
2021/08/26 09:42:31;;;;;;;8.60;4.83;;;;;;;20.69;94.90;98260.09;4527649;76;28483;-76
2021/08/26 09:48:33;;;;;;;8.35;4.37;;;;;;;20.84;93.51;98262.39;4529553;76;28505;-77
2021/08/26 09:54:50;;;;;;;8.75;4.47;;;;;;;20.94;91.88;98265.95;4523801;76;28442;-75
2021/08/26 10:01:13;;;;;;;7.37;4.05;;;;;;;20.85;91.97;98257.17;4527039;77;28446;-76
2021/08/26 10:07:16;;;;;;;6.83;4.15;;;;;;;21.07;89.48;98268.30;4544648;76;28474;-76
2021/08/26 10:13:19;;;;;;;7.55;4.30;;;;;;;21.17;87.61;98264.68;4541875;76;28491;-76
2021/08/26 10:19:22;;;;;;;8.18;4.08;;;;;;;21.24;85.69;98263.41;4540981;76;28481;-82
2021/08/26 10:25:23;;;;;;;7.10;3.90;;;;;;;21.50;83.97;98263.95;4531474;76;28465;-76
2021/08/26 10:31:35;;;;;;;6.55;3.70;;;;;;;21.65;77.75;98249.79;4550302;77;28464;-76
2021/08/26 10:37:51;;;;;;;7.30;4.00;;;;;;;21.61;78.10;98260.33;4416253;78;28502;-76
2021/08/26 10:44:00;;;;;;;5.50;3.27;;;;;;;21.43;79.04;98262.52;4411557;78;28504;-80
2021/08/26 10:50:39;;;;;;;6.50;3.60;;;;;;;21.35;79.60;98265.24;4410338;79;28494;-78
2021/08/26 10:56:40;;;;;;;5.97;3.12;;;;;;;21.42;79.11;98262.84;4406263;78;28468;-76
2021/08/26 11:02:42;;;;;;;8.58;3.60;;;;;;;21.45;79.49;98258.90;4411802;79;28516;-76
2021/08/26 11:08:59;;;;;;;5.60;3.40;;;;;;;21.65;78.18;98256.63;4404621;79;28476;-76
2021/08/26 11:15:01;;;;;;;5.87;3.02;;;;;;;21.59;78.47;98261.47;4417040;79;28543;-79
2021/08/26 11:21:02;;;;;;;6.25;3.40;;;;;;;21.59;78.67;98262.02;4393898;79;28476;-76
2021/08/26 11:27:19;;;;;;;7.10;3.62;;;;;;;21.56;80.36;98269.51;4346084;80;28499;-77
2021/08/26 11:33:27;;;;;;;23.87;3.83;;;;;;;21.62;80.06;98264.67;4349561;79;28539;-76
2021/08/26 11:39:29;;;;;;;6.22;3.37;;;;;;;21.42;82.96;98262.28;4467524;78;28501;-76
2021/08/26 11:45:32;;;;;;;7.30;3.37;;;;;;;21.31;83.83;98265.11;4440857;77;28519;-77
2021/08/26 11:51:34;;;;;;;7.28;3.52;;;;;;;21.15;85.42;98265.57;4465162;78;28458;-78
2021/08/26 11:57:35;;;;;;;5.60;3.40;;;;;;;21.09;84.22;98272.88;4373024;79;28575;-77
2021/08/26 12:03:37;;;;;;;5.80;3.25;;;;;;;21.14;84.92;98263.17;4458025;78;28551;-76
2021/08/26 12:09:38;;;;;;;6.03;3.30;;;;;;;20.92;86.55;98266.84;4459992;77;28514;-76
2021/08/26 12:15:44;;;;;;;6.08;3.00;;;;;;;20.70;89.43;98264.44;4477605;77;28448;-76
2021/08/26 12:21:47;;;;;;;6.37;3.17;;;;;;;20.67;86.04;98261.77;4472914;77;28469;-78
2021/08/26 12:27:56;;;;;;;5.95;2.90;;;;;;;20.79;86.30;98262.53;4503543;77;28484;-78
2021/08/26 12:34:08;;;;;;;5.12;2.90;;;;;;;20.78;87.72;98269.66;4505973;77;28469;-78
2021/08/26 12:40:11;;;;;;;5.65;2.80;;;;;;;20.75;87.20;98262.91;4506204;77;28472;-77
2021/08/26 12:46:18;;;;;;;5.72;3.30;;;;;;;21.01;85.99;98253.42;4497712;77;28448;-77
2021/08/26 12:52:34;;;;;;;6.05;3.02;;;;;;;21.18;85.93;98251.25;4494966;77;28458;-78
2021/08/26 12:58:36;;;;;;;9.40;3.03;;;;;;;21.43;86.07;98236.55;4479879;77;28523;-80
2021/08/26 13:04:39;;;;;;;5.25;2.87;;;;;;;21.75;84.94;98233.62;4504870;77;28544;-80
2021/08/26 13:10:42;;;;;;;4.33;2.70;;;;;;;21.74;84.30;98229.28;4508717;77;28529;-78
2021/08/26 13:16:43;;;;;;;4.75;2.70;;;;;;;21.89;81.60;98218.37;4497008;77;28457;-77
2021/08/26 13:22:44;;;;;;;5.28;2.70;;;;;;;21.66;83.50;98222.67;4503242;78;28543;-79
2021/08/26 13:28:46;;;;;;;5.17;2.60;;;;;;;21.96;82.79;98224.70;4511698;77;28485;-79
2021/08/26 13:34:48;;;;;;;5.92;2.65;;;;;;;22.14;80.38;98222.16;4513944;78;28604;-80
2021/08/26 13:40:49;;;;;;;5.83;2.87;;;;;;;22.15;77.23;98218.86;4490113;76;28526;-76
2021/08/26 13:46:51;;;;;;;5.05;2.92;;;;;;;22.13;76.18;98211.55;4522202;77;28481;-78
2021/08/26 13:52:52;;;;;;;4.50;2.75;;;;;;;22.56;74.64;98207.81;4486105;77;28520;-78
2021/08/26 13:58:54;;;;;;;4.42;2.85;;;;;;;22.66;73.22;98202.50;4504195;77;28563;-76
2021/08/26 14:04:56;;;;;;;6.83;2.92;;;;;;;23.06;70.29;98201.23;4512564;76;28571;-77
2021/08/26 14:10:57;;;;;;;4.90;2.65;;;;;;;22.94;69.30;98211.59;4391876;78;28456;-78
2021/08/26 14:16:59;;;;;;;4.87;3.02;;;;;;;22.96;69.22;98215.34;4512467;76;28520;-78
2021/08/26 14:23:02;;;;;;;4.15;2.60;;;;;;;23.09;66.58;98217.03;4518769;77;28456;-78
2021/08/26 14:29:04;;;;;;;5.30;3.10;;;;;;;23.38;68.41;98206.33;4403028;78;28481;-78
2021/08/26 14:35:07;;;;;;;5.75;3.33;;;;;;;23.20;66.71;98216.04;4383175;80;28472;-80
2021/08/26 14:41:09;;;;;;;7.37;3.50;;;;;;;23.14;65.88;98202.87;4422687;79;28456;-78
2021/08/26 14:47:11;;;;;;;8.20;3.42;;;;;;;23.02;67.06;98197.57;4399891;79;28483;-79
2021/08/26 14:53:12;;;;;;;5.87;3.35;;;;;;;22.87;68.94;98200.93;4419169;79;28481;-77
2021/08/26 14:59:14;;;;;;;5.55;3.10;;;;;;;22.86;67.46;98200.67;4410142;79;28473;-79
2021/08/26 15:05:16;;;;;;;6.58;3.08;;;;;;;22.80;66.60;98198.14;4404538;79;28571;-78
2021/08/26 15:11:17;;;;;;;5.25;3.10;;;;;;;22.67;65.08;98183.56;4395634;79;28475;-79
2021/08/26 15:17:19;;;;;;;7.12;3.50;;;;;;;22.72;66.65;98179.03;4419115;79;28457;-80
2021/08/26 15:23:20;;;;;;;6.05;2.92;;;;;;;22.85;65.36;98176.59;4407615;79;28512;-79
2021/08/26 15:29:22;;;;;;;5.00;3.22;;;;;;;22.76;65.44;98190.37;4351296;79;28502;-79
2021/08/26 15:35:23;;;;;;;6.35;3.20;;;;;;;22.61;66.11;98180.80;4351741;79;28499;-80
2021/08/26 15:41:24;;;;;;;5.55;2.90;;;;;;;22.84;66.97;98175.77;4359763;79;28560;-80
2021/08/26 15:47:26;;;;;;;6.70;3.08;;;;;;;23.03;65.78;98181.36;4352664;79;28551;-79
2021/08/26 15:53:38;;;;;;;5.83;3.05;;;;;;;22.91;64.58;98181.30;4338843;79;28486;-78
2021/08/26 16:05:42;;;;;;;5.05;2.95;;;;;;;22.98;65.26;98187.06;4344447;79;28489;-79
2021/08/26 16:11:43;;;;;;;5.83;2.83;;;;;;;23.04;65.30;98179.43;4334771;80;28465;-75
2021/08/26 16:17:46;;;;;;;5.97;2.98;;;;;;;22.94;64.82;98190.22;4361193;80;28496;-79
2021/08/26 16:23:47;;;;;;;5.37;3.05;;;;;;;22.95;65.81;98198.67;4338188;80;28462;-79
2021/08/26 16:29:48;;;;;;;4.62;2.67;;;;;;;22.98;66.00;98196.06;4345038;79;28450;-78
2021/08/26 16:35:50;;;;;;;4.55;2.80;;;;;;;22.81;67.30;98194.84;4532388;76;28433;-77
2021/08/26 16:41:51;;;;;;;4.60;2.80;;;;;;;22.43;68.64;98203.33;4548320;77;28529;-81
2021/08/26 16:47:52;;;;;;;4.47;2.70;;;;;;;22.27;69.39;98196.25;4532214;77;28559;-81
2021/08/26 16:53:54;;;;;;;4.67;2.30;;;;;;;22.07;70.52;98193.69;4524218;77;28455;-81
2021/08/26 16:59:55;;;;;;;5.53;2.30;;;;;;;22.18;70.24;98179.87;4420018;79;28462;-81
2021/08/26 17:05:56;;;;;;;2.77;1.80;;;;;;;22.23;67.90;98184.36;4386634;79;28488;-80
2021/08/26 17:11:57;;;;;;;4.60;2.25;;;;;;;22.13;67.96;98197.28;4403153;79;28427;-80
2021/08/26 17:17:59;;;;;;;4.87;2.27;;;;;;;21.92;69.09;98212.83;4539033;77;28469;-80
2021/08/26 17:24:00;;;;;;;3.75;2.08;;;;;;;21.71;70.29;98220.36;4534171;76;28448;-80
2021/08/26 17:30:04;;;;;;;4.22;2.15;;;;;;;21.66;70.45;98213.10;4600809;76;28529;-82
2021/08/26 17:36:05;;;;;;;4.67;2.10;;;;;;;21.37;73.90;98230.99;4563629;77;28480;-82
2021/08/26 17:42:07;;;;;;;4.30;2.47;;;;;;;21.31;73.60;98226.84;4546727;77;28488;-82
2021/08/26 17:48:08;;;;;;;4.28;2.40;;;;;;;20.95;77.09;98222.48;4538490;77;28566;-83
2021/08/26 17:54:10;;;;;;;3.40;1.80;;;;;;;20.77;78.95;98238.80;4515609;77;28497;-80
2021/08/26 18:00:16;;;;;;;3.45;2.12;;;;;;;20.42;82.07;98234.63;4534186;78;28486;-80
2021/08/26 18:06:17;;;;;;;7.20;2.33;;;;;;;20.54;81.56;98235.40;4504006;78;28482;-81
2021/08/26 18:12:20;;;;;;;5.40;2.17;;;;;;;20.53;81.85;98237.31;4564702;78;28418;-80
2021/08/26 18:18:21;;;;;;;4.20;2.15;;;;;;;20.57;82.60;98230.11;4580294;76;28471;-80
2021/08/26 18:24:23;;;;;;;5.00;2.30;;;;;;;20.43;83.92;98223.41;4617984;77;28479;-81
2021/08/26 18:30:26;;;;;;;4.47;2.40;;;;;;;20.34;84.84;98233.48;4605128;76;28473;-80
2021/08/26 18:36:27;;;;;;;5.58;2.42;;;;;;;20.29;86.53;98246.72;4524564;77;28448;-81
2021/08/26 18:42:29;;;;;;;5.65;2.90;;;;;;;20.15;87.93;98259.64;4498563;77;28509;-81
2021/08/26 18:48:31;;;;;;;6.95;2.90;;;;;;;20.34;85.55;98262.94;4526867;77;28586;-80
2021/08/26 18:54:32;;;;;;;4.22;2.22;;;;;;;20.51;85.02;98264.69;4548530;76;28476;-81
2021/08/26 19:00:34;;;;;;;4.80;2.65;;;;;;;20.02;91.21;98261.37;4463730;80;28921;-82
2021/08/26 19:06:36;;;;;;;3.90;2.33;;;;;;;19.77;91.17;98266.31;4470207;79;28468;-80
2021/08/26 19:12:39;;;;;;;4.85;2.60;;;;;;;19.44;94.18;98277.47;4516661;77;28466;-79
2021/08/26 19:18:41;;;;;;;4.45;2.40;;;;;;;19.72;89.49;98268.61;4498540;76;28517;-80
2021/08/26 19:24:42;;;;;;;4.05;2.10;;;;;;;19.33;93.09;98274.20;4494250;77;28471;-79
2021/08/26 19:30:43;;;;;;;4.10;2.25;;;;;;;19.13;94.30;98272.18;4483268;78;28490;-82
2021/08/26 19:36:45;;;;;;;7.47;2.40;;;;;;;19.01;95.43;98277.36;4522669;77;28529;-82
2021/08/26 19:42:46;;;;;;;4.80;2.12;;;;;;;19.12;94.11;98280.66;4560334;78;28461;-80
2021/08/26 19:48:48;;;;;;;4.50;2.10;;;;;;;18.77;98.59;98283.80;4560230;77;28515;-80
2021/08/26 19:54:49;;;;;;;4.17;2.12;;;;;;;18.62;96.71;98288.45;4548498;77;28441;-81
2021/08/26 20:00:51;;;;;;;2.98;1.72;;;;;;;18.67;94.07;98295.14;4412541;79;28475;-82
2021/08/26 20:06:52;;;;;;;4.40;2.02;;;;;;;18.73;93.05;98307.31;4362600;80;28484;-81
2021/08/26 20:12:54;;;;;;;3.35;1.95;;;;;;;18.58;93.92;98308.42;4368990;81;28488;-83
2021/08/26 20:18:55;;;;;;;3.75;2.00;;;;;;;18.60;94.40;98321.98;4549555;77;28489;-80
2021/08/26 20:24:57;;;;;;;3.72;2.10;;;;;;;18.67;94.15;98331.11;4497231;77;28545;-80
2021/08/26 20:30:58;;;;;;;4.90;2.20;;;;;;;18.63;96.74;98339.07;4496880;77;28469;-80
2021/08/26 20:37:00;;;;;;;4.30;2.20;;;;;;;18.68;95.05;98341.67;4517930;77;28436;-81
2021/08/26 20:43:01;;;;;;;6.25;2.37;;;;;;;18.65;94.50;98344.22;4519504;77;28491;-82
2021/08/26 20:49:04;;;;;;;4.35;2.58;;;;;;;18.43;97.29;98344.36;4533717;78;28516;-80
2021/08/26 20:55:07;;;;;;;3.85;2.42;;;;;;;18.51;96.04;98337.41;4500174;78;28422;-81
2021/08/26 21:01:09;;;;;;;4.20;2.52;;;;;;;18.37;99.99;98331.37;4525246;78;28469;-80
2021/08/26 21:07:10;;;;;;;4.83;3.05;;;;;;;18.84;93.83;98330.50;4476499;78;28470;-80
2021/08/26 21:13:12;;;;;;;7.12;3.40;;;;;;;18.41;98.49;98335.66;4469324;79;28605;-80
2021/08/26 21:19:13;;;;;;;6.05;3.25;;;;;;;18.14;100.00;98321.45;4469180;79;28519;-80
2021/08/26 21:25:15;;;;;;;6.55;3.05;;;;;;;18.13;100.00;98310.33;4482508;78;28549;-80
2021/08/26 21:31:16;;;;;;;5.75;3.87;;;;;;;18.00;100.00;98310.51;4539576;76;28569;-80
2021/08/26 21:37:18;;;;;;;6.28;2.75;;;;;;;17.75;100.00;98306.55;4541242;77;28461;-80
2021/08/26 21:43:19;;;;;;;4.25;2.60;;;;;;;17.35;100.00;98316.97;4537052;77;28457;-83
2021/08/26 21:49:20;;;;;;;4.70;2.60;;;;;;;17.42;100.00;98308.70;4589449;77;28509;-79
2021/08/26 21:55:22;;;;;;;6.08;3.17;;;;;;;17.51;100.00;98316.98;4613324;77;28465;-80
2021/08/26 22:01:24;;;;;;;4.80;2.58;;;;;;;17.32;100.00;98316.17;4612799;77;28515;-80
2021/08/26 22:07:25;;;;;;;4.58;2.30;;;;;;;17.33;100.00;98313.72;4607780;77;28493;-81
2021/08/26 22:13:27;;;;;;;6.17;3.17;;;;;;;17.08;100.00;98336.06;4521196;78;28443;-80
2021/08/26 22:19:29;;;;;;;5.03;2.72;;;;;;;17.37;100.00;98357.66;4557972;78;28488;-81
2021/08/26 22:25:30;;;;;;;4.45;2.67;;;;;;;17.11;100.00;98384.36;4482148;78;28472;-80
2021/08/26 22:31:33;;;;;;;4.47;2.60;;;;;;;17.25;100.00;98408.37;4479263;79;28527;-81
2021/08/26 22:37:35;;;;;;;5.03;2.52;;;;;;;17.33;100.00;98414.23;4536707;78;28477;-80
2021/08/26 22:43:37;;;;;;;5.80;2.75;;;;;;;17.39;100.00;98423.41;4560916;78;28485;-80
2021/08/26 22:49:39;;;;;;;5.00;3.02;;;;;;;17.59;100.00;98423.42;4560693;78;28528;-80
2021/08/26 22:55:41;;;;;;;5.70;3.75;;;;;;;17.59;100.00;98413.34;4561116;78;28475;-79
2021/08/26 23:01:43;;;;;;;6.25;3.40;;;;;;;17.73;100.00;98403.13;4560733;78;28519;-80
2021/08/26 23:07:44;;;;;;;5.60;3.35;;;;;;;17.69;100.00;98415.92;4560497;78;28470;-80
2021/08/26 23:13:45;;;;;;;5.60;3.50;;;;;;;17.84;100.00;98435.28;4560121;78;28481;-80
2021/08/26 23:19:47;;;;;;;6.92;3.40;;;;;;;18.05;100.00;98443.17;4558646;78;28508;-79
2021/08/26 23:25:48;;;;;;;5.30;3.45;;;;;;;17.87;100.00;98439.91;4559862;78;28463;-79
2021/08/26 23:31:50;;;;;;;6.55;3.33;;;;;;;17.88;100.00;98433.36;4552494;78;28548;-80
2021/08/26 23:37:51;;;;;;;5.47;3.10;;;;;;;18.07;100.00;98433.37;4550449;78;28472;-79
2021/08/26 23:43:53;;;;;;;7.90;3.58;;;;;;;17.83;100.00;98443.19;4528722;78;28430;-79
2021/08/26 23:49:54;;;;;;;5.75;3.72;;;;;;;18.03;100.00;98437.77;4516400;77;28477;-80
2021/08/26 23:55:55;;;;;;;7.72;3.70;;;;;;;17.97;100.00;98425.59;4571296;78;28450;-78
